sensor_id;sensor_type;location;lat;lon;timestamp;pressure;altitude;pressure_sealevel;temperature;humidity
67099;BME280;54288;53.046;5.668;2023-02-28T05:39:00;103299.06;;;4.24;100.00
67099;BME280;54288;53.046;5.668;2023-02-28T05:41:45;103306.19;;;4.29;100.00
67099;BME280;54288;53.046;5.668;2023-02-28T05:44:33;103315.72;;;4.29;100.00
67099;BME280;54288;53.046;5.668;2023-02-28T05:47:18;103307.72;;;4.24;100.00
67099;BME280;54288;53.046;5.668;2023-02-28T05:50:05;103297.00;;;4.17;100.00
67099;BME280;54288;53.046;5.668;2023-02-28T05:55:15;103312.31;;;4.11;100.00
67099;BME280;54288;53.046;5.668;2023-02-28T05:57:42;103308.69;;;4.07;100.00
67099;BME280;54288;53.046;5.668;2023-02-28T06:00:13;103316.31;;;4.04;100.00
67099;BME280;54288;53.046;5.668;2023-02-28T06:02:41;103316.94;;;3.99;100.00
67099;BME280;54288;53.046;5.668;2023-02-28T06:05:15;103311.72;;;3.80;100.00
67099;BME280;54288;53.046;5.668;2023-02-28T06:07:51;103307.72;;;3.69;100.00
67099;BME280;54288;53.046;5.668;2023-02-28T06:10:20;103315.69;;;3.54;100.00
67099;BME280;54288;53.046;5.668;2023-02-28T06:12:53;103315.19;;;3.44;100.00
67099;BME280;54288;53.046;5.668;2023-02-28T06:15:19;103320.16;;;3.39;100.00
67099;BME280;54288;53.046;5.668;2023-02-28T06:17:47;103323.41;;;3.35;100.00
67099;BME280;54288;53.046;5.668;2023-02-28T06:20:14;103317.94;;;3.29;100.00
67099;BME280;54288;53.046;5.668;2023-02-28T06:22:41;103312.47;;;3.23;100.00
67099;BME280;54288;53.046;5.668;2023-02-28T06:25:09;103313.03;;;3.18;100.00
67099;BME280;54288;53.046;5.668;2023-02-28T06:27:36;103312.25;;;3.19;100.00
67099;BME280;54288;53.046;5.668;2023-02-28T06:30:04;103315.50;;;3.15;100.00
67099;BME280;54288;53.046;5.668;2023-02-28T06:32:34;103319.03;;;2.99;100.00
67099;BME280;54288;53.046;5.668;2023-02-28T06:35:29;103322.72;;;2.87;100.00
67099;BME280;54288;53.046;5.668;2023-02-28T06:37:56;103322.63;;;2.85;100.00
67099;BME280;54288;53.046;5.668;2023-02-28T06:40:23;103321.44;;;2.79;100.00
67099;BME280;54288;53.046;5.668;2023-02-28T06:42:50;103327.19;;;2.73;100.00
67099;BME280;54288;53.046;5.668;2023-02-28T06:45:21;103332.28;;;2.72;100.00
67099;BME280;54288;53.046;5.668;2023-02-28T06:47:48;103342.69;;;2.73;100.00
67099;BME280;54288;53.046;5.668;2023-02-28T06:50:18;103344.34;;;2.71;100.00
67099;BME280;54288;53.046;5.668;2023-02-28T06:52:46;103344.16;;;2.68;100.00
67099;BME280;54288;53.046;5.668;2023-02-28T06:55:13;103349.44;;;2.70;100.00
67099;BME280;54288;53.046;5.668;2023-02-28T06:57:40;103357.28;;;2.71;100.00
67099;BME280;54288;53.046;5.668;2023-02-28T07:00:09;103362.34;;;2.70;100.00
67099;BME280;54288;53.046;5.668;2023-02-28T07:02:36;103355.31;;;2.67;100.00
67099;BME280;54288;53.046;5.668;2023-02-28T07:05:08;103367.63;;;2.71;100.00
67099;BME280;54288;53.046;5.668;2023-02-28T07:07:35;103368.34;;;2.69;100.00
67099;BME280;54288;53.046;5.668;2023-02-28T07:10:04;103376.84;;;2.66;100.00
67099;BME280;54288;53.046;5.668;2023-02-28T07:12:31;103378.28;;;2.61;100.00
67099;BME280;54288;53.046;5.668;2023-02-28T07:14:59;103389.44;;;2.60;100.00
67099;BME280;54288;53.046;5.668;2023-02-28T07:17:25;103391.88;;;2.57;100.00
67099;BME280;54288;53.046;5.668;2023-02-28T07:19:55;103387.19;;;2.50;100.00
67099;BME280;54288;53.046;5.668;2023-02-28T07:22:22;103378.38;;;2.47;100.00
67099;BME280;54288;53.046;5.668;2023-02-28T07:24:49;103400.94;;;2.49;100.00
67099;BME280;54288;53.046;5.668;2023-02-28T07:27:15;103393.72;;;2.44;100.00
67099;BME280;54288;53.046;5.668;2023-02-28T07:29:49;103385.59;;;2.36;100.00
67099;BME280;54288;53.046;5.668;2023-02-28T07:32:16;103391.53;;;2.35;100.00
67099;BME280;54288;53.046;5.668;2023-02-28T07:34:43;103393.97;;;2.32;100.00
67099;BME280;54288;53.046;5.668;2023-02-28T07:37:09;103396.47;;;2.31;100.00
67099;BME280;54288;53.046;5.668;2023-02-28T07:39:35;103397.53;;;2.34;100.00
67099;BME280;54288;53.046;5.668;2023-02-28T07:42:06;103407.38;;;2.41;100.00
67099;BME280;54288;53.046;5.668;2023-02-28T07:44:35;103397.22;;;2.44;100.00
67099;BME280;54288;53.046;5.668;2023-02-28T07:47:09;103402.22;;;2.41;100.00
67099;BME280;54288;53.046;5.668;2023-02-28T07:49:37;103399.72;;;2.43;100.00
67099;BME280;54288;53.046;5.668;2023-02-28T07:52:06;103407.78;;;2.49;100.00
67099;BME280;54288;53.046;5.668;2023-02-28T07:54:34;103394.94;;;2.50;100.00
67099;BME280;54288;53.046;5.668;2023-02-28T07:57:00;103394.22;;;2.53;100.00
67099;BME280;54288;53.046;5.668;2023-02-28T07:59:26;103407.38;;;2.57;100.00
67099;BME280;54288;53.046;5.668;2023-02-28T08:01:53;103396.72;;;2.51;100.00
67099;BME280;54288;53.046;5.668;2023-02-28T08:04:19;103407.25;;;2.54;100.00
67099;BME280;54288;53.046;5.668;2023-02-28T08:06:46;103398.34;;;2.49;100.00
67099;BME280;54288;53.046;5.668;2023-02-28T08:09:12;103412.41;;;2.54;100.00
67099;BME280;54288;53.046;5.668;2023-02-28T08:11:42;103402.06;;;2.54;100.00
67099;BME280;54288;53.046;5.668;2023-02-28T08:14:09;103411.91;;;2.61;100.00
67099;BME280;54288;53.046;5.668;2023-02-28T08:16:36;103408.44;;;2.61;100.00
67099;BME280;54288;53.046;5.668;2023-02-28T08:19:02;103411.09;;;2.62;100.00
67099;BME280;54288;53.046;5.668;2023-02-28T08:21:29;103409.16;;;2.58;100.00
67099;BME280;54288;53.046;5.668;2023-02-28T08:23:56;103410.97;;;2.59;100.00
67099;BME280;54288;53.046;5.668;2023-02-28T08:26:23;103406.50;;;2.57;100.00
67099;BME280;54288;53.046;5.668;2023-02-28T08:28:49;103421.13;;;2.56;100.00
67099;BME280;54288;53.046;5.668;2023-02-28T08:31:17;103414.19;;;2.55;100.00
67099;BME280;54288;53.046;5.668;2023-02-28T08:33:45;103424.53;;;2.55;100.00
67099;BME280;54288;53.046;5.668;2023-02-28T08:36:14;103429.13;;;2.61;100.00
67099;BME280;54288;53.046;5.668;2023-02-28T08:38:40;103434.25;;;2.59;100.00
67099;BME280;54288;53.046;5.668;2023-02-28T08:41:10;103433.09;;;2.54;100.00
67099;BME280;54288;53.046;5.668;2023-02-28T08:43:41;103433.00;;;2.53;100.00
67099;BME280;54288;53.046;5.668;2023-02-28T08:46:12;103435.69;;;2.54;100.00
67099;BME280;54288;53.046;5.668;2023-02-28T08:48:39;103433.09;;;2.54;100.00
67099;BME280;54288;53.046;5.668;2023-02-28T08:51:12;103442.63;;;2.55;100.00
67099;BME280;54288;53.046;5.668;2023-02-28T08:53:40;103441.28;;;2.62;100.00
67099;BME280;54288;53.046;5.668;2023-02-28T08:56:09;103437.88;;;2.63;100.00
67099;BME280;54288;53.046;5.668;2023-02-28T08:58:36;103437.78;;;2.61;100.00
67099;BME280;54288;53.046;5.668;2023-02-28T09:01:17;103441.19;;;2.60;100.00
67099;BME280;54288;53.046;5.668;2023-02-28T09:03:46;103448.63;;;2.70;100.00
67099;BME280;54288;53.046;5.668;2023-02-28T09:06:14;103445.38;;;2.74;100.00
67099;BME280;54288;53.046;5.668;2023-02-28T09:08:42;103447.72;;;2.86;100.00
67099;BME280;54288;53.046;5.668;2023-02-28T09:11:17;103451.34;;;2.89;100.00
67099;BME280;54288;53.046;5.668;2023-02-28T09:13:46;103430.88;;;2.94;100.00
67099;BME280;54288;53.046;5.668;2023-02-28T09:16:15;103442.75;;;3.06;100.00
67099;BME280;54288;53.046;5.668;2023-02-28T09:18:42;103434.47;;;3.13;100.00
67099;BME280;54288;53.046;5.668;2023-02-28T09:21:12;103440.28;;;3.25;100.00
67099;BME280;54288;53.046;5.668;2023-02-28T09:23:43;103432.63;;;3.44;100.00
67099;BME280;54288;53.046;5.668;2023-02-28T09:26:23;103426.63;;;3.45;100.00
67099;BME280;54288;53.046;5.668;2023-02-28T09:28:53;103421.59;;;3.66;100.00
67099;BME280;54288;53.046;5.668;2023-02-28T09:31:25;103427.44;;;3.79;100.00
67099;BME280;54288;53.046;5.668;2023-02-28T09:33:55;103431.28;;;3.87;100.00
67099;BME280;54288;53.046;5.668;2023-02-28T09:36:24;103428.78;;;3.89;100.00
67099;BME280;54288;53.046;5.668;2023-02-28T09:38:54;103438.78;;;3.81;100.00
67099;BME280;54288;53.046;5.668;2023-02-28T09:41:24;103430.34;;;3.85;100.00
67099;BME280;54288;53.046;5.668;2023-02-28T09:44:00;103442.09;;;3.96;100.00
67099;BME280;54288;53.046;5.668;2023-02-28T09:46:39;103437.78;;;4.14;100.00
67099;BME280;54288;53.046;5.668;2023-02-28T09:49:14;103440.78;;;4.23;100.00
67099;BME280;54288;53.046;5.668;2023-02-28T09:57:18;103449.16;;;4.54;100.00
67099;BME280;54288;53.046;5.668;2023-02-28T09:59:51;103457.81;;;4.55;100.00
67099;BME280;54288;53.046;5.668;2023-02-28T10:05:19;103456.41;;;4.99;100.00
67099;BME280;54288;53.046;5.668;2023-02-28T10:10:51;103457.28;;;5.39;100.00
67099;BME280;54288;53.046;5.668;2023-02-28T10:13:46;103447.47;;;5.32;100.00
67099;BME280;54288;53.046;5.668;2023-02-28T10:17:09;103453.19;;;5.25;100.00
67099;BME280;54288;53.046;5.668;2023-02-28T10:23:47;103435.22;;;5.50;100.00
67099;BME280;54288;53.046;5.668;2023-02-28T10:55:23;103415.00;;;8.03;90.55
67099;BME280;54288;53.046;5.668;2023-02-28T10:57:52;103409.75;;;8.28;85.54
67099;BME280;54288;53.046;5.668;2023-02-28T14:05:39;103335.25;;;8.11;68.45
67099;BME280;54288;53.046;5.668;2023-02-28T14:08:14;103334.28;;;8.37;67.77
67099;BME280;54288;53.046;5.668;2023-02-28T14:10:48;103331.63;;;8.36;67.48
67099;BME280;54288;53.046;5.668;2023-02-28T14:15:56;103325.19;;;8.23;66.02
67099;BME280;54288;53.046;5.668;2023-02-28T14:29:34;103314.94;;;8.01;71.56
67099;BME280;54288;53.046;5.668;2023-02-28T14:32:26;103323.50;;;8.25;69.58
67099;BME280;54288;53.046;5.668;2023-02-28T14:40:49;103311.84;;;8.14;69.06
67099;BME280;54288;53.046;5.668;2023-02-28T14:56:49;103313.69;;;7.89;68.70
67099;BME280;54288;53.046;5.668;2023-02-28T15:56:02;103291.47;;;6.67;74.94
67099;BME280;54288;53.046;5.668;2023-02-28T15:58:29;103289.66;;;6.65;76.93
67099;BME280;54288;53.046;5.668;2023-02-28T16:01:19;103288.47;;;6.55;76.10
67099;BME280;54288;53.046;5.668;2023-02-28T16:03:52;103283.75;;;6.45;76.43
67099;BME280;54288;53.046;5.668;2023-02-28T20:07:53;103395.66;;;0.68;100.00
67099;BME280;54288;53.046;5.668;2023-02-28T22:53:58;103458.78;;;-0.84;100.00
67099;BME280;54288;53.046;5.668;2023-02-28T23:02:38;103454.41;;;-0.98;100.00
67099;BME280;54288;53.046;5.668;2023-02-28T23:05:04;103453.09;;;-1.05;100.00
67099;BME280;54288;53.046;5.668;2023-02-28T23:07:31;103464.97;;;-1.07;100.00
67099;BME280;54288;53.046;5.668;2023-02-28T23:09:57;103463.66;;;-1.13;100.00
67099;BME280;54288;53.046;5.668;2023-02-28T23:12:24;103454.97;;;-1.15;100.00
67099;BME280;54288;53.046;5.668;2023-02-28T23:15:04;103455.84;;;-1.15;100.00
67099;BME280;54288;53.046;5.668;2023-02-28T23:17:31;103465.25;;;-1.15;100.00
67099;BME280;54288;53.046;5.668;2023-02-28T23:19:58;103459.19;;;-1.16;100.00
67099;BME280;54288;53.046;5.668;2023-02-28T23:25:07;103460.09;;;-1.15;100.00
67099;BME280;54288;53.046;5.668;2023-02-28T23:27:34;103457.19;;;-1.20;100.00
67099;BME280;54288;53.046;5.668;2023-02-28T23:32:55;103453.22;;;-1.28;100.00
67099;BME280;54288;53.046;5.668;2023-02-28T23:35:25;103455.31;;;-1.22;100.00
67099;BME280;54288;53.046;5.668;2023-02-28T23:38:19;103452.16;;;-1.18;100.00
67099;BME280;54288;53.046;5.668;2023-02-28T23:40:49;103453.66;;;-1.22;100.00
67099;BME280;54288;53.046;5.668;2023-02-28T23:43:32;103452.97;;;-1.19;100.00
67099;BME280;54288;53.046;5.668;2023-02-28T23:48:35;103451.91;;;-1.34;100.00
67099;BME280;54288;53.046;5.668;2023-02-28T23:51:08;103452.53;;;-1.25;100.00
67099;BME280;54288;53.046;5.668;2023-02-28T23:53:40;103454.56;;;-1.21;100.00
67099;BME280;54288;53.046;5.668;2023-02-28T23:56:10;103445.81;;;-1.23;100.00
67099;BME280;54288;53.046;5.668;2023-02-28T23:58:41;103443.84;;;-1.27;100.00
